Time;durP1;ratioP1;P1;durP2;ratioP2;P2;SDS_P1;SDS_P2;PMS_P1;PMS_P2;Temp;Humidity;BMP_temperature;BMP_pressure;BME280_temperature;BME280_humidity;BME280_pressure;Samples;Min_cycle;Max_cycle;Signal;HPM_P1;HPM_P2
2022/07/03 00:02:21;;;;;;;3.47;2.47;;;20.70;98.10;;;;;;4988518;28;20734;-67
2022/07/03 00:04:48;;;;;;;2.87;2.67;;;20.60;98.40;;;;;;4984654;28;21234;-67
2022/07/03 00:07:15;;;;;;;3.07;2.77;;;20.50;98.90;;;;;;4982731;28;21285;-67
2022/07/03 00:09:42;;;;;;;2.30;2.20;;;20.50;99.60;;;;;;4991345;28;20668;-66
2022/07/03 00:12:09;;;;;;;3.00;2.73;;;20.50;99.90;;;;;;4990012;28;20642;-66
2022/07/03 00:14:36;;;;;;;2.17;2.03;;;20.50;99.90;;;;;;4982333;28;21243;-65
2022/07/03 00:17:03;;;;;;;3.40;2.77;;;20.40;99.90;;;;;;4988811;28;20660;-66
2022/07/03 00:19:30;;;;;;;3.00;2.80;;;20.40;99.90;;;;;;4990225;28;20986;-67
2022/07/03 00:22:03;;;;;;;2.80;2.60;;;20.50;99.90;;;;;;4989456;28;21245;-68
2022/07/03 00:24:32;;;;;;;4.20;2.63;;;20.50;99.90;;;;;;4979415;28;20721;-66
2022/07/03 00:27:01;;;;;;;2.97;2.77;;;20.50;99.90;;;;;;4992198;28;20633;-66
2022/07/03 00:29:35;;;;;;;3.00;2.67;;;20.40;99.90;;;;;;4993817;28;20656;-66
2022/07/03 00:32:03;;;;;;;4.40;2.70;;;20.40;99.90;;;;;;4993629;28;20654;-66
2022/07/03 00:34:30;;;;;;;2.40;2.27;;;20.40;99.90;;;;;;4994966;28;20674;-67
2022/07/03 00:36:59;;;;;;;3.63;2.63;;;20.50;99.90;;;;;;4993336;28;20661;-66
2022/07/03 00:39:35;;;;;;;3.13;2.73;;;20.40;99.90;;;;;;4994814;28;20657;-66
2022/07/03 00:42:03;;;;;;;5.50;3.10;;;20.30;99.90;;;;;;4991009;28;20645;-68
2022/07/03 00:44:35;;;;;;;2.93;2.73;;;20.30;99.90;;;;;;4988877;28;20638;-67
2022/07/03 00:47:04;;;;;;;4.23;3.20;;;20.30;99.90;;;;;;4993064;28;20645;-68
2022/07/03 00:49:33;;;;;;;3.27;2.80;;;20.20;99.90;;;;;;4993782;28;20788;-66
2022/07/03 00:52:05;;;;;;;4.57;3.10;;;20.20;99.90;;;;;;4993954;28;20630;-67
2022/07/03 00:54:38;;;;;;;4.40;3.30;;;20.20;99.90;;;;;;4993596;28;20716;-66
2022/07/03 00:57:11;;;;;;;6.17;3.13;;;20.20;99.90;;;;;;4991802;28;20984;-64
2022/07/03 00:59:38;;;;;;;6.33;3.00;;;20.30;99.90;;;;;;4993190;28;20622;-65
2022/07/03 01:02:06;;;;;;;3.10;2.87;;;20.20;99.90;;;;;;4991884;28;20994;-65
2022/07/03 01:04:51;;;;;;;3.23;2.87;;;20.30;99.90;;;;;;4993505;28;20650;-66
2022/07/03 01:07:33;;;;;;;7.70;3.10;;;20.20;99.90;;;;;;4992762;28;20638;-66
2022/07/03 01:10:06;;;;;;;2.67;2.47;;;20.20;99.90;;;;;;4994306;28;20709;-67
2022/07/03 01:12:55;;;;;;;2.97;2.77;;;20.20;99.90;;;;;;4994208;28;20650;-66
2022/07/03 01:15:34;;;;;;;3.13;2.83;;;20.20;99.90;;;;;;4993956;28;20654;-67
2022/07/03 01:18:35;;;;;;;5.13;3.63;;;20.20;99.90;;;;;;4992392;28;21072;-66
2022/07/03 01:21:18;;;;;;;3.37;2.80;;;20.20;99.90;;;;;;4984082;28;21232;-64
2022/07/03 01:24:23;;;;;;;3.30;3.00;;;20.20;99.90;;;;;;4994551;28;20642;-66
2022/07/03 01:26:57;;;;;;;3.43;3.13;;;20.30;99.90;;;;;;4992732;28;20676;-66
2022/07/03 01:29:35;;;;;;;3.60;3.30;;;20.30;99.90;;;;;;4993446;28;20626;-66
2022/07/03 01:32:04;;;;;;;2.93;2.73;;;20.30;99.90;;;;;;4993193;28;20729;-66
2022/07/03 01:34:39;;;;;;;3.20;3.00;;;20.30;99.90;;;;;;4993541;28;20654;-66
2022/07/03 01:37:09;;;;;;;2.73;2.60;;;20.30;99.90;;;;;;4993214;28;20661;-65
2022/07/03 01:39:36;;;;;;;4.00;2.93;;;20.30;99.90;;;;;;4990952;28;20606;-66
2022/07/03 01:42:24;;;;;;;3.20;2.87;;;20.30;99.90;;;;;;4989456;28;20752;-66
2022/07/03 01:44:53;;;;;;;6.50;2.50;;;20.20;99.90;;;;;;4989497;28;20666;-66
2022/07/03 01:47:24;;;;;;;2.67;2.47;;;20.20;99.90;;;;;;4987818;28;20646;-66
2022/07/03 01:49:55;;;;;;;2.90;2.57;;;20.00;99.90;;;;;;4990727;28;20609;-67
2022/07/03 01:52:22;;;;;;;3.07;2.73;;;19.90;99.90;;;;;;4993451;28;20975;-66
2022/07/03 01:55:09;;;;;;;2.70;2.50;;;19.90;99.90;;;;;;4981527;28;20650;-65
2022/07/03 01:57:48;;;;;;;2.20;2.10;;;19.90;99.90;;;;;;4993027;28;20721;-66
2022/07/03 02:00:25;;;;;;;3.13;2.73;;;19.80;99.90;;;;;;4991108;28;20644;-66
2022/07/03 02:03:01;;;;;;;2.53;2.40;;;19.80;99.90;;;;;;4977350;28;20634;-66
2022/07/03 02:05:37;;;;;;;2.43;2.33;;;19.80;99.90;;;;;;4972545;28;20682;-66
2022/07/03 02:08:28;;;;;;;2.80;2.60;;;19.80;99.90;;;;;;4973910;28;20613;-68
2022/07/03 02:11:09;;;;;;;2.60;2.40;;;19.80;99.90;;;;;;4973154;28;21173;-63
2022/07/03 02:13:58;;;;;;;2.20;2.10;;;19.90;99.90;;;;;;4991887;28;21283;-67
2022/07/03 02:16:29;;;;;;;2.40;2.30;;;19.90;99.90;;;;;;4986653;28;20990;-66
2022/07/03 02:19:02;;;;;;;2.60;2.40;;;19.90;99.90;;;;;;4989478;28;20630;-66
2022/07/03 02:21:30;;;;;;;2.70;2.50;;;19.80;99.90;;;;;;4991786;28;20630;-66
2022/07/03 02:23:56;;;;;;;2.60;2.47;;;19.70;99.90;;;;;;4993083;28;21016;-66
2022/07/03 02:26:32;;;;;;;2.50;2.40;;;19.60;99.90;;;;;;4992798;28;21006;-66
2022/07/03 02:29:07;;;;;;;3.00;2.80;;;19.60;99.90;;;;;;4992847;28;20992;-66
2022/07/03 02:31:45;;;;;;;2.50;2.30;;;19.60;99.90;;;;;;4991119;28;20648;-66
2022/07/03 02:34:17;;;;;;;2.90;2.70;;;19.60;99.90;;;;;;4992505;28;20641;-67
2022/07/03 02:36:50;;;;;;;3.17;2.87;;;19.70;99.90;;;;;;4985068;28;20643;-66
2022/07/03 02:39:29;;;;;;;2.57;2.37;;;19.70;99.90;;;;;;4974144;28;21233;-66
2022/07/03 02:42:02;;;;;;;2.87;2.67;;;19.70;99.90;;;;;;4983027;28;21169;-64
2022/07/03 02:44:45;;;;;;;3.00;2.80;;;19.70;99.90;;;;;;4992342;28;21065;-66
2022/07/03 02:47:29;;;;;;;3.37;2.87;;;19.80;99.90;;;;;;4990597;28;20622;-66
2022/07/03 02:50:03;;;;;;;2.67;2.57;;;19.80;99.90;;;;;;4990356;28;20619;-66
2022/07/03 02:52:37;;;;;;;2.60;2.50;;;19.80;99.90;;;;;;4991800;28;20636;-67
2022/07/03 02:55:42;;;;;;;2.50;2.20;;;19.70;99.90;;;;;;4991675;28;20643;-66
2022/07/03 02:58:46;;;;;;;3.77;3.17;;;19.70;99.90;;;;;;4991735;28;21014;-67
2022/07/03 03:01:24;;;;;;;2.53;2.43;;;19.60;99.90;;;;;;4976263;28;20646;-67
2022/07/03 03:04:02;;;;;;;2.20;2.10;;;19.60;99.90;;;;;;4990781;28;20654;-67
2022/07/03 03:06:32;;;;;;;3.23;2.27;;;19.40;99.90;;;;;;4990860;28;21224;-67
2022/07/03 03:09:03;;;;;;;2.27;2.17;;;19.30;99.90;;;;;;4992709;28;20621;-66
2022/07/03 03:11:44;;;;;;;2.40;2.27;;;19.20;99.90;;;;;;4991571;28;20606;-68
2022/07/03 03:14:19;;;;;;;2.00;1.90;;;19.10;99.90;;;;;;4992521;28;20634;-66
2022/07/03 03:16:50;;;;;;;3.43;2.33;;;19.10;99.90;;;;;;4988765;28;20647;-66
2022/07/03 03:19:21;;;;;;;1.83;1.70;;;19.00;99.90;;;;;;4983466;28;20618;-66
2022/07/03 03:21:57;;;;;;;2.50;2.40;;;18.90;99.90;;;;;;4990572;28;20657;-66
2022/07/03 03:24:25;;;;;;;2.13;2.03;;;18.90;99.90;;;;;;4990788;28;20648;-67
2022/07/03 03:26:52;;;;;;;2.10;2.00;;;18.80;99.90;;;;;;4990532;28;21311;-67
2022/07/03 03:29:18;;;;;;;2.23;2.13;;;18.80;99.90;;;;;;4991908;28;20618;-66
2022/07/03 03:31:45;;;;;;;2.20;2.10;;;18.70;99.90;;;;;;4990781;28;21200;-68
2022/07/03 03:34:13;;;;;;;2.27;2.17;;;18.70;99.90;;;;;;4991448;28;20645;-67
2022/07/03 03:36:40;;;;;;;2.23;2.13;;;18.70;99.90;;;;;;4990981;28;20615;-66
2022/07/03 03:39:08;;;;;;;2.20;2.00;;;18.60;99.90;;;;;;4991010;28;20624;-64
2022/07/03 03:41:35;;;;;;;2.13;2.03;;;18.60;99.90;;;;;;4989497;28;20734;-67
2022/07/03 03:44:01;;;;;;;2.77;2.40;;;18.60;99.90;;;;;;4989408;28;20688;-66
2022/07/03 03:46:28;;;;;;;3.97;2.57;;;18.60;99.90;;;;;;4990535;28;20674;-66
2022/07/03 03:48:57;;;;;;;3.03;2.50;;;18.60;99.90;;;;;;4990312;28;20630;-66
2022/07/03 03:51:23;;;;;;;2.80;2.53;;;18.60;99.90;;;;;;4992076;28;20610;-66
2022/07/03 03:53:50;;;;;;;2.40;2.30;;;18.60;99.90;;;;;;4989930;28;20657;-67
2022/07/03 03:56:18;;;;;;;2.07;1.97;;;18.80;99.90;;;;;;4979483;28;20623;-67
2022/07/03 03:58:45;;;;;;;3.70;2.47;;;19.00;99.90;;;;;;4974996;28;20708;-66
2022/07/03 04:01:12;;;;;;;2.53;2.40;;;19.10;99.90;;;;;;4986787;28;21422;-64
2022/07/03 04:03:40;;;;;;;2.93;2.67;;;19.30;99.90;;;;;;4982695;28;20689;-67
2022/07/03 04:06:08;;;;;;;4.67;3.00;;;19.50;99.90;;;;;;4990213;28;20650;-67
2022/07/03 04:08:35;;;;;;;6.00;3.30;;;19.60;99.90;;;;;;4991376;28;20630;-67
2022/07/03 04:11:02;;;;;;;2.60;2.50;;;19.80;99.90;;;;;;4990968;28;20620;-66
2022/07/03 04:13:29;;;;;;;2.83;2.63;;;20.00;99.90;;;;;;4992251;28;20733;-67
2022/07/03 04:15:56;;;;;;;3.00;2.80;;;20.30;99.90;;;;;;4990404;28;20638;-67
2022/07/03 04:18:23;;;;;;;5.20;2.67;;;20.70;99.90;;;;;;4989942;28;20704;-67
2022/07/03 04:20:56;;;;;;;4.60;3.20;;;21.00;99.90;;;;;;4995224;28;20625;-66
2022/07/03 04:23:23;;;;;;;2.60;2.40;;;21.30;99.90;;;;;;4982802;28;20741;-66
2022/07/03 04:25:50;;;;;;;2.63;2.43;;;21.60;99.90;;;;;;4990281;28;21259;-66
2022/07/03 04:28:17;;;;;;;2.70;2.60;;;21.80;99.90;;;;;;4990684;28;21000;-68
2022/07/03 04:30:46;;;;;;;2.30;2.10;;;22.10;99.90;;;;;;4979684;28;20639;-67
2022/07/03 04:33:12;;;;;;;2.20;2.03;;;22.20;99.90;;;;;;4982375;28;20615;-67
2022/07/03 04:35:39;;;;;;;2.50;2.30;;;22.30;99.90;;;;;;4989475;28;20658;-68
2022/07/03 04:38:06;;;;;;;3.43;2.60;;;22.30;99.90;;;;;;4970456;28;20611;-64
2022/07/03 04:40:33;;;;;;;2.20;2.10;;;22.40;99.90;;;;;;4970784;28;20623;-66
2022/07/03 04:43:00;;;;;;;2.30;2.20;;;22.30;99.90;;;;;;4975700;28;20647;-65
2022/07/03 04:45:26;;;;;;;2.10;2.00;;;22.20;99.90;;;;;;4971216;28;21058;-66
2022/07/03 04:47:53;;;;;;;2.67;2.47;;;22.20;99.90;;;;;;4981015;28;20645;-68
2022/07/03 04:50:20;;;;;;;2.43;2.23;;;22.40;99.90;;;;;;4988611;28;21210;-66
2022/07/03 04:52:47;;;;;;;2.77;2.50;;;22.30;99.90;;;;;;4990224;28;20616;-67
2022/07/03 04:55:14;;;;;;;2.80;2.60;;;22.50;99.90;;;;;;4989120;28;20765;-66
2022/07/03 04:57:40;;;;;;;2.40;2.10;;;22.60;99.90;;;;;;4990266;28;20616;-67
2022/07/03 05:00:08;;;;;;;5.30;2.07;;;22.90;99.90;;;;;;4990108;28;20652;-66
2022/07/03 05:02:35;;;;;;;2.50;2.30;;;23.20;99.90;;;;;;4979452;28;20681;-66
2022/07/03 05:05:03;;;;;;;6.83;2.00;;;23.30;99.90;;;;;;4990329;28;20654;-63
2022/07/03 05:07:30;;;;;;;1.90;1.83;;;23.50;99.70;;;;;;4989018;28;20666;-68
2022/07/03 05:09:58;;;;;;;4.53;2.07;;;23.50;99.60;;;;;;4991498;28;20620;-66
2022/07/03 05:12:24;;;;;;;2.23;2.13;;;23.40;99.40;;;;;;4991949;28;20725;-66
2022/07/03 05:14:51;;;;;;;2.37;2.27;;;23.30;99.60;;;;;;4994797;28;21015;-66
2022/07/03 05:17:18;;;;;;;2.00;1.90;;;23.60;99.20;;;;;;4984415;28;20670;-68
2022/07/03 05:19:45;;;;;;;2.07;1.97;;;23.70;98.80;;;;;;4992936;28;20995;-67
2022/07/03 05:22:13;;;;;;;2.60;2.50;;;23.80;98.60;;;;;;4992852;28;20638;-63
2022/07/03 05:24:39;;;;;;;2.00;1.90;;;23.80;98.40;;;;;;4995065;28;20630;-67
2022/07/03 05:27:06;;;;;;;3.47;2.00;;;23.80;98.20;;;;;;4993816;28;20657;-66
2022/07/03 05:29:33;;;;;;;3.20;2.87;;;24.00;98.10;;;;;;4993788;28;20633;-66
2022/07/03 05:32:06;;;;;;;2.27;2.07;;;24.20;97.70;;;;;;4993216;28;20638;-66
2022/07/03 05:34:33;;;;;;;1.80;1.77;;;24.20;97.50;;;;;;4993188;28;20636;-67
2022/07/03 05:36:59;;;;;;;3.60;2.50;;;24.20;97.30;;;;;;4992592;28;20638;-66
2022/07/03 05:39:32;;;;;;;2.90;2.70;;;24.20;97.40;;;;;;4991379;28;21095;-68
2022/07/03 05:41:59;;;;;;;4.00;2.50;;;24.40;97.40;;;;;;4992202;28;20642;-67
2022/07/03 05:44:26;;;;;;;1.93;1.83;;;24.20;97.30;;;;;;4992771;28;20642;-66
2022/07/03 05:46:53;;;;;;;2.30;2.13;;;24.40;97.10;;;;;;4983190;28;21013;-66
2022/07/03 05:49:20;;;;;;;3.20;2.97;;;24.80;96.70;;;;;;4973585;28;20630;-66
2022/07/03 05:51:46;;;;;;;5.83;2.60;;;25.20;96.20;;;;;;4973628;28;21095;-68
2022/07/03 05:54:13;;;;;;;2.10;2.00;;;25.50;95.60;;;;;;4985937;28;20653;-67
2022/07/03 05:56:40;;;;;;;2.10;2.00;;;25.60;95.10;;;;;;4993260;28;20625;-67
2022/07/03 05:59:07;;;;;;;3.50;2.40;;;26.00;94.60;;;;;;4987928;28;20642;-68
2022/07/03 06:01:34;;;;;;;2.00;1.90;;;26.40;93.60;;;;;;4988570;28;21005;-68
2022/07/03 06:04:01;;;;;;;2.20;2.00;;;26.30;92.90;;;;;;4991090;28;20656;-64
2022/07/03 06:06:28;;;;;;;2.20;2.10;;;26.30;93.20;;;;;;4986525;28;20669;-66
2022/07/03 06:08:55;;;;;;;2.30;2.20;;;26.40;93.10;;;;;;4991078;28;20614;-67
2022/07/03 06:11:22;;;;;;;2.00;1.90;;;26.80;92.30;;;;;;4991989;28;20689;-67
2022/07/03 06:13:49;;;;;;;1.70;1.60;;;26.90;91.80;;;;;;4993562;28;20630;-66
2022/07/03 06:16:16;;;;;;;1.93;1.80;;;27.10;91.20;;;;;;4988376;28;20641;-66
2022/07/03 06:18:43;;;;;;;2.30;2.20;;;27.80;90.40;;;;;;4991189;28;20716;-66
2022/07/03 06:21:10;;;;;;;1.97;1.93;;;28.30;88.30;;;;;;4991948;28;20721;-67
2022/07/03 06:23:37;;;;;;;1.63;1.60;;;29.30;86.20;;;;;;4990193;28;20662;-66
2022/07/03 06:26:14;;;;;;;2.20;2.10;;;30.10;81.90;;;;;;4992487;28;21024;-67
2022/07/03 06:28:42;;;;;;;2.10;2.00;;;30.70;79.50;;;;;;4990723;28;20684;-67
2022/07/03 06:31:08;;;;;;;1.77;1.67;;;31.30;76.40;;;;;;4992357;28;20618;-64
2022/07/03 06:33:35;;;;;;;2.30;2.20;;;32.10;73.70;;;;;;4993339;28;20648;-68
2022/07/03 06:36:02;;;;;;;2.20;2.10;;;32.90;70.80;;;;;;4992142;28;20737;-67
2022/07/03 06:38:29;;;;;;;2.10;2.00;;;33.40;66.30;;;;;;4990763;28;21070;-66
2022/07/03 06:40:56;;;;;;;2.20;2.10;;;33.80;64.50;;;;;;4992240;28;20709;-67
2022/07/03 06:43:22;;;;;;;1.83;1.80;;;34.40;62.70;;;;;;4993078;28;20753;-66
2022/07/03 06:45:49;;;;;;;2.20;2.00;;;35.00;61.00;;;;;;4992288;28;20630;-67
2022/07/03 06:48:16;;;;;;;2.10;2.00;;;35.20;59.40;;;;;;4991000;28;20634;-67
2022/07/03 06:50:45;;;;;;;1.80;1.70;;;35.30;59.00;;;;;;4983765;28;20674;-68
2022/07/03 06:53:11;;;;;;;1.90;1.80;;;35.50;57.30;;;;;;4985269;28;20645;-66
2022/07/03 06:55:38;;;;;;;1.87;1.80;;;35.50;55.90;;;;;;4991498;28;20737;-69
2022/07/03 06:58:05;;;;;;;1.63;1.63;;;36.30;55.10;;;;;;4990284;28;24427;-66
2022/07/03 07:00:32;;;;;;;1.83;1.73;;;37.80;53.50;;;;;;4990612;28;20203;-67
2022/07/03 07:02:58;;;;;;;1.87;1.77;;;38.30;51.70;;;;;;4980785;28;20743;-67
2022/07/03 07:05:26;;;;;;;2.10;2.00;;;39.20;50.30;;;;;;4972216;28;21030;-67
2022/07/03 07:07:53;;;;;;;1.73;1.73;;;40.30;49.20;;;;;;4975150;28;20655;-65
2022/07/03 07:10:20;;;;;;;2.90;1.70;;;41.30;47.40;;;;;;4986648;28;20734;-66
2022/07/03 07:12:47;;;;;;;1.80;1.70;;;41.10;46.30;;;;;;4990513;28;20618;-68
2022/07/03 07:15:13;;;;;;;2.00;2.00;;;40.40;45.80;;;;;;4989933;28;21278;-68
2022/07/03 07:17:40;;;;;;;1.67;1.67;;;41.60;45.20;;;;;;4990031;28;20685;-68
2022/07/03 07:20:08;;;;;;;1.90;1.80;;;41.80;44.20;;;;;;4981113;28;20618;-68
2022/07/03 07:22:35;;;;;;;1.43;1.43;;;42.40;43.50;;;;;;4979643;28;20634;-69
2022/07/03 07:25:02;;;;;;;2.13;1.87;;;43.20;42.50;;;;;;4990785;28;20744;-67
2022/07/03 07:27:29;;;;;;;1.60;1.60;;;42.60;41.90;;;;;;4990204;28;20670;-68
2022/07/03 07:29:56;;;;;;;2.20;2.10;;;42.60;41.80;;;;;;4990037;28;20632;-67
2022/07/03 07:32:23;;;;;;;1.80;1.80;;;41.70;41.80;;;;;;4990328;28;20721;-68
2022/07/03 07:34:51;;;;;;;1.53;1.53;;;42.70;42.00;;;;;;4990104;28;20871;-69
2022/07/03 07:37:18;;;;;;;1.70;1.60;;;42.90;41.40;;;;;;4988888;28;20630;-68
2022/07/03 07:39:45;;;;;;;1.77;1.70;;;43.10;40.90;;;;;;4992150;28;21162;-67
2022/07/03 07:42:15;;;;;;;1.70;1.57;;;41.50;40.80;;;;;;4990271;28;20638;-64
2022/07/03 07:44:42;;;;;;;1.57;1.50;;;40.80;41.30;;;;;;4989141;28;20654;-68
2022/07/03 07:47:09;;;;;;;2.33;2.20;;;41.30;41.50;;;;;;4987834;28;20985;-67
2022/07/03 07:49:36;;;;;;;1.40;1.40;;;40.80;41.60;;;;;;4978828;28;20618;-67
2022/07/03 07:52:03;;;;;;;1.60;1.60;;;40.40;42.20;;;;;;4971497;28;21258;-66
2022/07/03 07:54:30;;;;;;;1.77;1.67;;;39.80;42.40;;;;;;4971580;28;20647;-67
2022/07/03 07:56:57;;;;;;;1.53;1.53;;;39.60;42.40;;;;;;4980626;28;20641;-67
2022/07/03 07:59:23;;;;;;;1.70;1.70;;;39.20;42.80;;;;;;4987003;28;20626;-68
2022/07/03 08:07:20;;;;;;;1.73;1.73;;;37.00;45.10;;;;;;4990627;28;20658;-65
2022/07/03 08:09:47;;;;;;;2.20;2.10;;;35.60;46.20;;;;;;4990417;28;21009;-66
2022/07/03 08:12:14;;;;;;;2.80;1.80;;;35.30;47.20;;;;;;4991614;28;20676;-68
2022/07/03 08:14:41;;;;;;;2.03;1.93;;;35.20;47.30;;;;;;4989027;28;20734;-66
2022/07/03 08:17:13;;;;;;;2.00;1.90;;;34.70;48.00;;;;;;4971782;28;20646;-67
2022/07/03 08:19:42;;;;;;;1.90;1.80;;;33.70;48.70;;;;;;4970471;28;20741;-68
2022/07/03 08:22:09;;;;;;;2.80;2.10;;;32.30;50.40;;;;;;4984093;28;20670;-64
2022/07/03 08:24:37;;;;;;;2.10;2.00;;;32.40;50.90;;;;;;4989580;28;21264;-67
2022/07/03 08:27:10;;;;;;;2.47;2.37;;;33.10;50.60;;;;;;4989759;28;20662;-63
2022/07/03 08:29:38;;;;;;;1.93;1.83;;;33.00;50.80;;;;;;4989271;28;20638;-64
2022/07/03 08:32:07;;;;;;;1.80;1.80;;;33.20;50.20;;;;;;4986996;28;20637;-65
2022/07/03 08:34:34;;;;;;;1.90;1.63;;;33.20;50.40;;;;;;4988824;28;20697;-65
2022/07/03 08:37:01;;;;;;;1.77;1.77;;;33.10;50.50;;;;;;4989868;28;20642;-65
2022/07/03 08:39:28;;;;;;;2.30;2.10;;;32.90;50.70;;;;;;4988868;28;21177;-65
2022/07/03 08:41:56;;;;;;;1.83;1.73;;;33.00;50.70;;;;;;4988284;28;20630;-64
2022/07/03 08:44:25;;;;;;;2.03;1.93;;;32.70;50.40;;;;;;4984099;28;20658;-63
2022/07/03 08:46:52;;;;;;;1.90;1.90;;;32.30;51.30;;;;;;4990117;28;20666;-65
2022/07/03 08:49:19;;;;;;;1.67;1.67;;;32.60;50.90;;;;;;4993431;28;20622;-65
2022/07/03 08:51:47;;;;;;;1.63;1.63;;;32.70;51.30;;;;;;4991816;28;20672;-64
2022/07/03 08:54:17;;;;;;;3.50;1.87;;;32.80;51.30;;;;;;4975664;28;20649;-64
2022/07/03 08:56:45;;;;;;;2.43;1.70;;;32.20;51.30;;;;;;4991203;28;20618;-64
2022/07/03 08:59:13;;;;;;;1.43;1.33;;;32.40;51.90;;;;;;4993323;28;20650;-65
2022/07/03 09:01:42;;;;;;;1.77;1.60;;;32.10;51.70;;;;;;4991941;28;20634;-64
2022/07/03 09:04:13;;;;;;;2.00;1.90;;;31.60;52.70;;;;;;4993000;28;20649;-63
2022/07/03 09:06:41;;;;;;;1.63;1.53;;;31.70;52.50;;;;;;4992279;28;20645;-63
2022/07/03 09:09:08;;;;;;;2.00;1.90;;;31.60;52.00;;;;;;4992757;28;20602;-63
2022/07/03 09:11:37;;;;;;;3.37;1.90;;;31.40;52.40;;;;;;4992428;28;21079;-64
2022/07/03 09:14:06;;;;;;;1.77;1.77;;;31.60;52.80;;;;;;4975822;28;20638;-64
2022/07/03 09:16:37;;;;;;;1.70;1.60;;;30.80;53.70;;;;;;4979894;28;21186;-63
2022/07/03 09:19:04;;;;;;;1.97;1.87;;;31.00;53.70;;;;;;4984968;28;20622;-62
2022/07/03 09:21:39;;;;;;;1.63;1.60;;;31.40;53.00;;;;;;4992301;28;20630;-64
2022/07/03 09:24:08;;;;;;;1.50;1.50;;;31.80;52.90;;;;;;4989128;28;20788;-65
2022/07/03 09:26:52;;;;;;;1.63;1.63;;;32.10;51.30;;;;;;4991205;28;20986;-63
2022/07/03 09:29:19;;;;;;;1.73;1.73;;;32.30;51.00;;;;;;4993152;28;20640;-63
2022/07/03 09:31:55;;;;;;;1.40;1.40;;;32.40;51.40;;;;;;4992071;28;21018;-63
2022/07/03 09:34:23;;;;;;;1.70;1.60;;;32.70;51.00;;;;;;4992978;28;20638;-63
2022/07/03 09:36:51;;;;;;;3.63;2.23;;;32.90;50.30;;;;;;4992132;28;21083;-61
2022/07/03 09:39:31;;;;;;;2.37;2.20;;;32.70;50.70;;;;;;4993159;28;21204;-63
2022/07/03 09:42:07;;;;;;;1.57;1.47;;;32.80;50.70;;;;;;4992586;28;20630;-64
2022/07/03 09:44:47;;;;;;;1.60;1.60;;;32.70;49.30;;;;;;4994112;28;20725;-64
2022/07/03 09:47:20;;;;;;;1.23;1.23;;;32.70;49.30;;;;;;4984317;28;20657;-63
2022/07/03 09:49:50;;;;;;;1.40;1.40;;;32.70;49.50;;;;;;4985115;28;20625;-63
2022/07/03 09:52:37;;;;;;;1.63;1.63;;;32.90;49.20;;;;;;4991528;28;21015;-63
2022/07/03 09:55:10;;;;;;;2.30;1.50;;;32.30;49.10;;;;;;4991833;28;20748;-62
2022/07/03 09:57:46;;;;;;;4.53;1.30;;;31.60;50.00;;;;;;4992321;28;20621;-64
2022/07/03 10:00:17;;;;;;;1.43;1.43;;;31.40;50.70;;;;;;4992070;28;20664;-63
2022/07/03 10:03:04;;;;;;;1.63;1.63;;;30.90;51.80;;;;;;4991674;28;21218;-66
2022/07/03 10:05:32;;;;;;;2.50;1.97;;;30.50;52.60;;;;;;4990455;28;20618;-64
2022/07/03 10:08:07;;;;;;;3.10;1.43;;;30.50;52.30;;;;;;4993772;28;20688;-66
2022/07/03 10:10:38;;;;;;;1.63;1.53;;;30.80;51.50;;;;;;4985690;28;20618;-64
2022/07/03 10:13:05;;;;;;;1.67;1.60;;;31.10;51.30;;;;;;4987056;28;20656;-65
2022/07/03 10:15:37;;;;;;;1.27;1.23;;;31.20;51.00;;;;;;4985141;28;20750;-64
2022/07/03 10:18:07;;;;;;;1.20;1.17;;;31.10;51.00;;;;;;4984211;28;20642;-64
2022/07/03 10:20:48;;;;;;;3.00;1.50;;;30.90;51.70;;;;;;4980131;28;20618;-63
2022/07/03 10:23:21;;;;;;;1.23;1.23;;;31.00;50.90;;;;;;4985102;28;20634;-66
2022/07/03 10:25:48;;;;;;;1.63;1.30;;;31.30;49.00;;;;;;4985053;28;20625;-65
2022/07/03 10:28:17;;;;;;;2.33;1.40;;;31.60;48.60;;;;;;4987259;28;20663;-64
2022/07/03 10:30:46;;;;;;;2.20;1.50;;;31.80;48.90;;;;;;4997276;28;20671;-64
2022/07/03 10:33:13;;;;;;;1.30;1.30;;;31.90;48.70;;;;;;4991705;28;20723;-64
2022/07/03 10:35:51;;;;;;;1.30;1.30;;;32.00;48.40;;;;;;4988298;28;20621;-65
2022/07/03 10:38:31;;;;;;;1.10;1.00;;;31.60;47.80;;;;;;4993329;28;20654;-66
2022/07/03 10:46:58;;;;;;;1.10;1.10;;;31.20;48.90;;;;;;4991802;28;20621;-64
2022/07/03 10:49:33;;;;;;;2.17;2.07;;;30.80;50.20;;;;;;4992364;28;20810;-64
2022/07/03 10:52:03;;;;;;;1.67;1.57;;;30.90;49.80;;;;;;4992515;28;21189;-64
2022/07/03 10:54:36;;;;;;;2.47;2.33;;;31.10;50.20;;;;;;4992180;28;20991;-66
2022/07/03 10:57:13;;;;;;;1.30;1.30;;;30.70;50.70;;;;;;4992110;28;20619;-64
2022/07/03 10:59:47;;;;;;;1.03;1.00;;;30.50;50.50;;;;;;4992539;28;20651;-65
2022/07/03 11:02:22;;;;;;;1.33;1.23;;;30.60;50.40;;;;;;4979973;28;20625;-61
2022/07/03 11:04:59;;;;;;;1.07;1.07;;;30.80;49.90;;;;;;4992405;28;20654;-64
2022/07/03 11:07:27;;;;;;;1.30;1.30;;;31.10;49.30;;;;;;4992703;28;20701;-64
2022/07/03 11:10:12;;;;;;;1.37;1.37;;;30.90;49.00;;;;;;4991996;28;20717;-64
2022/07/03 11:13:04;;;;;;;1.17;1.17;;;30.90;49.00;;;;;;4980450;28;20614;-65
2022/07/03 11:15:36;;;;;;;1.13;1.13;;;30.90;49.20;;;;;;4992174;28;20623;-65
2022/07/03 11:18:17;;;;;;;1.00;1.00;;;31.00;49.30;;;;;;4992406;28;20634;-64
2022/07/03 11:20:43;;;;;;;1.40;1.40;;;30.90;48.50;;;;;;4992418;28;20632;-66
2022/07/03 11:23:13;;;;;;;1.40;1.30;;;31.00;48.40;;;;;;4992079;28;20661;-65
2022/07/03 11:25:48;;;;;;;1.27;1.17;;;30.90;48.10;;;;;;4992167;28;20633;-65
2022/07/03 11:28:33;;;;;;;1.17;1.17;;;30.90;48.00;;;;;;4992456;28;20669;-66
2022/07/03 11:33:42;;;;;;;2.10;1.20;;;30.50;48.60;;;;;;4979140;28;20653;-65
2022/07/03 11:36:11;;;;;;;1.10;1.10;;;30.30;48.70;;;;;;4988924;28;20618;-64
2022/07/03 11:38:37;;;;;;;1.03;1.03;;;30.20;49.10;;;;;;4991481;28;21215;-65
2022/07/03 11:41:07;;;;;;;1.13;1.10;;;30.30;48.90;;;;;;4988859;28;21199;-65
2022/07/03 11:43:35;;;;;;;1.00;1.00;;;30.20;48.90;;;;;;4992368;28;20652;-65
2022/07/03 11:46:06;;;;;;;1.27;1.00;;;29.80;49.20;;;;;;4992309;28;20630;-65
2022/07/03 11:48:32;;;;;;;0.77;0.77;;;29.70;49.50;;;;;;4991875;28;20662;-65
2022/07/03 11:51:03;;;;;;;1.20;1.20;;;29.80;49.20;;;;;;4990714;28;20702;-66
2022/07/03 11:53:33;;;;;;;1.33;1.27;;;29.70;49.40;;;;;;4991552;28;20642;-65
2022/07/03 11:56:05;;;;;;;0.77;0.77;;;29.70;49.50;;;;;;4978092;28;20625;-65
2022/07/03 11:58:52;;;;;;;1.10;1.10;;;29.70;49.30;;;;;;4992050;28;20997;-65
2022/07/03 12:01:25;;;;;;;1.70;1.60;;;29.80;49.40;;;;;;4987346;28;20737;-66
2022/07/03 12:04:08;;;;;;;6.37;5.33;;;29.90;49.40;;;;;;4987875;28;20658;-65
2022/07/03 12:06:48;;;;;;;3.00;2.80;;;29.80;49.30;;;;;;4990938;28;21839;-62
2022/07/03 12:09:22;;;;;;;1.80;1.20;;;29.90;50.30;;;;;;4990011;28;21267;-65
2022/07/03 12:11:53;;;;;;;1.20;1.20;;;29.90;50.00;;;;;;4991973;28;20709;-65
2022/07/03 12:14:46;;;;;;;2.00;1.90;;;29.90;50.00;;;;;;4991563;28;20642;-69
2022/07/03 12:17:22;;;;;;;1.17;1.17;;;30.00;51.50;;;;;;4991947;28;20638;-66
2022/07/03 12:20:09;;;;;;;1.00;1.00;;;29.60;50.40;;;;;;4988639;28;21181;-67
2022/07/03 12:22:41;;;;;;;1.33;1.33;;;29.70;49.70;;;;;;4993187;28;20661;-67
2022/07/03 12:25:09;;;;;;;1.07;1.07;;;29.80;49.90;;;;;;4996059;28;20646;-66
2022/07/03 12:27:43;;;;;;;0.93;0.90;;;29.80;49.40;;;;;;4995586;28;20634;-66
2022/07/03 12:30:17;;;;;;;2.10;0.90;;;29.60;49.50;;;;;;4990697;28;20618;-64
2022/07/03 12:32:50;;;;;;;0.80;0.80;;;29.60;49.50;;;;;;4985859;28;20622;-66
2022/07/03 12:35:24;;;;;;;1.20;1.20;;;29.70;49.60;;;;;;4983408;28;21256;-66
2022/07/03 12:37:51;;;;;;;1.10;1.10;;;29.90;49.70;;;;;;4986047;28;20626;-66
2022/07/03 12:40:18;;;;;;;1.37;1.37;;;29.90;49.00;;;;;;4994216;28;20630;-65
2022/07/03 12:42:49;;;;;;;1.10;1.10;;;30.10;48.40;;;;;;4995429;28;20653;-65
2022/07/03 12:45:18;;;;;;;1.00;1.00;;;30.00;48.30;;;;;;4994994;28;20650;-66
2022/07/03 12:47:45;;;;;;;2.00;1.20;;;30.00;48.70;;;;;;4994803;28;20666;-67
2022/07/03 12:50:14;;;;;;;1.03;1.03;;;30.10;48.80;;;;;;4994467;28;20626;-63
2022/07/03 12:52:57;;;;;;;1.20;1.20;;;30.20;48.20;;;;;;4994675;28;20654;-67
2022/07/03 12:55:30;;;;;;;1.40;1.30;;;30.10;48.70;;;;;;4993079;28;20633;-65
2022/07/03 13:00:56;;;;;;;1.20;1.20;;;30.10;49.40;;;;;;4994573;28;20721;-66
2022/07/03 13:03:31;;;;;;;1.10;1.10;;;30.10;49.00;;;;;;4994448;28;20659;-67
2022/07/03 13:06:14;;;;;;;1.27;1.13;;;30.20;49.00;;;;;;4983087;28;20637;-63
2022/07/03 13:08:59;;;;;;;1.10;1.10;;;30.10;48.60;;;;;;4994441;28;21212;-65
2022/07/03 13:11:31;;;;;;;0.97;0.97;;;30.10;48.40;;;;;;4995568;28;20626;-65
2022/07/03 13:14:16;;;;;;;1.30;1.20;;;29.90;48.60;;;;;;4994951;28;20642;-66
2022/07/03 13:16:48;;;;;;;1.37;1.27;;;30.00;48.50;;;;;;4992025;28;20730;-65
2022/07/03 13:19:18;;;;;;;1.10;1.10;;;30.00;48.70;;;;;;4991185;28;21211;-67
2022/07/03 13:21:46;;;;;;;1.00;1.00;;;30.10;48.70;;;;;;4994318;28;20708;-66
2022/07/03 13:24:14;;;;;;;1.10;1.00;;;30.10;48.90;;;;;;4995056;28;20652;-66
2022/07/03 13:26:42;;;;;;;1.00;1.00;;;30.20;48.90;;;;;;4995397;28;21201;-66